sensor_id;sensor_type;location;lat;lon;timestamp;pressure;altitude;pressure_sealevel;temperature
51693;BMP280;37777;53.066;21.638;2024-02-04T00:02:47;99637.78;;;6.26
51693;BMP280;37777;53.066;21.638;2024-02-04T00:09:49;99630.94;;;6.16
51693;BMP280;37777;53.066;21.638;2024-02-04T00:16:50;99634.72;;;6.15
51693;BMP280;37777;53.066;21.638;2024-02-04T00:23:52;99643.09;;;6.14
51693;BMP280;37777;53.066;21.638;2024-02-04T00:30:54;99647.59;;;6.10
51693;BMP280;37777;53.066;21.638;2024-02-04T00:37:57;99661.31;;;6.08
51693;BMP280;37777;53.066;21.638;2024-02-04T00:44:58;99669.69;;;6.07
51693;BMP280;37777;53.066;21.638;2024-02-04T00:52:00;99660.28;;;6.01
51693;BMP280;37777;53.066;21.638;2024-02-04T00:59:02;99659.28;;;6.05
51693;BMP280;37777;53.066;21.638;2024-02-04T01:06:03;99657.25;;;6.02
51693;BMP280;37777;53.066;21.638;2024-02-04T01:13:05;99663.72;;;6.01
51693;BMP280;37777;53.066;21.638;2024-02-04T01:20:07;99659.03;;;5.98
51693;BMP280;37777;53.066;21.638;2024-02-04T01:27:08;99650.16;;;5.97
51693;BMP280;37777;53.066;21.638;2024-02-04T01:34:10;99653.22;;;5.96
51693;BMP280;37777;53.066;21.638;2024-02-04T01:41:11;99645.19;;;5.87
51693;BMP280;37777;53.066;21.638;2024-02-04T01:48:13;99649.91;;;5.90
51693;BMP280;37777;53.066;21.638;2024-02-04T01:55:17;99641.16;;;5.81
51693;BMP280;37777;53.066;21.638;2024-02-04T02:02:20;99651.75;;;5.77
51693;BMP280;37777;53.066;21.638;2024-02-04T02:09:22;99638.38;;;5.69
51693;BMP280;37777;53.066;21.638;2024-02-04T02:16:24;99641.44;;;5.58
51693;BMP280;37777;53.066;21.638;2024-02-04T02:23:30;99647.25;;;5.60
51693;BMP280;37777;53.066;21.638;2024-02-04T02:30:35;99651.50;;;5.61
51693;BMP280;37777;53.066;21.638;2024-02-04T02:37:41;99661.59;;;5.64
51693;BMP280;37777;53.066;21.638;2024-02-04T02:44:46;99642.16;;;5.68
51693;BMP280;37777;53.066;21.638;2024-02-04T02:51:47;99642.03;;;5.64
51693;BMP280;37777;53.066;21.638;2024-02-04T02:58:49;99630.69;;;5.58
51693;BMP280;37777;53.066;21.638;2024-02-04T03:05:50;99640.50;;;5.54
51693;BMP280;37777;53.066;21.638;2024-02-04T03:12:52;99651.22;;;5.54
51693;BMP280;37777;53.066;21.638;2024-02-04T03:19:53;99648.44;;;5.51
51693;BMP280;37777;53.066;21.638;2024-02-04T03:26:58;99642.63;;;5.40
51693;BMP280;37777;53.066;21.638;2024-02-04T03:33:59;99662.50;;;5.48
51693;BMP280;37777;53.066;21.638;2024-02-04T03:41:01;99669.28;;;5.45
51693;BMP280;37777;53.066;21.638;2024-02-04T03:48:03;99679.13;;;5.32
51693;BMP280;37777;53.066;21.638;2024-02-04T03:55:05;99676.44;;;5.23
51693;BMP280;37777;53.066;21.638;2024-02-04T04:02:06;99664.00;;;5.19
51693;BMP280;37777;53.066;21.638;2024-02-04T04:09:08;99671.06;;;5.23
51693;BMP280;37777;53.066;21.638;2024-02-04T04:16:09;99679.31;;;5.18
51693;BMP280;37777;53.066;21.638;2024-02-04T04:23:12;99676.00;;;5.13
51693;BMP280;37777;53.066;21.638;2024-02-04T04:30:14;99691.28;;;5.21
51693;BMP280;37777;53.066;21.638;2024-02-04T04:37:15;99698.53;;;5.20
51693;BMP280;37777;53.066;21.638;2024-02-04T04:44:17;99689.41;;;5.21
51693;BMP280;37777;53.066;21.638;2024-02-04T04:51:18;99672.22;;;5.14
51693;BMP280;37777;53.066;21.638;2024-02-04T04:58:20;99673.50;;;5.07
51693;BMP280;37777;53.066;21.638;2024-02-04T05:05:21;99670.69;;;5.04
51693;BMP280;37777;53.066;21.638;2024-02-04T05:12:23;99671.28;;;5.01
51693;BMP280;37777;53.066;21.638;2024-02-04T05:19:25;99672.44;;;5.00
51693;BMP280;37777;53.066;21.638;2024-02-04T05:26:26;99676.22;;;4.99
51693;BMP280;37777;53.066;21.638;2024-02-04T05:33:28;99661.56;;;4.87
51693;BMP280;37777;53.066;21.638;2024-02-04T05:40:29;99665.81;;;4.88
51693;BMP280;37777;53.066;21.638;2024-02-04T05:47:31;99653.50;;;4.87
51693;BMP280;37777;53.066;21.638;2024-02-04T05:54:37;99649.13;;;4.83
51693;BMP280;37777;53.066;21.638;2024-02-04T06:01:40;99660.19;;;4.81
51693;BMP280;37777;53.066;21.638;2024-02-04T06:08:42;99660.94;;;4.73
51693;BMP280;37777;53.066;21.638;2024-02-04T06:15:44;99662.41;;;4.62
51693;BMP280;37777;53.066;21.638;2024-02-04T06:22:45;99666.34;;;4.55
51693;BMP280;37777;53.066;21.638;2024-02-04T06:38:08;99672.78;;;4.72
51693;BMP280;37777;53.066;21.638;2024-02-04T06:45:09;99673.75;;;4.76
51693;BMP280;37777;53.066;21.638;2024-02-04T06:52:11;99667.56;;;4.75
51693;BMP280;37777;53.066;21.638;2024-02-04T06:59:12;99675.59;;;4.84
51693;BMP280;37777;53.066;21.638;2024-02-04T07:06:14;99671.19;;;4.88
51693;BMP280;37777;53.066;21.638;2024-02-04T07:13:15;99676.06;;;4.86
51693;BMP280;37777;53.066;21.638;2024-02-04T07:20:17;99670.84;;;4.90
51693;BMP280;37777;53.066;21.638;2024-02-04T07:27:19;99651.16;;;4.86
51693;BMP280;37777;53.066;21.638;2024-02-04T07:34:20;99653.84;;;4.94
51693;BMP280;37777;53.066;21.638;2024-02-04T07:41:22;99645.47;;;4.96
51693;BMP280;37777;53.066;21.638;2024-02-04T07:48:23;99641.03;;;5.00
51693;BMP280;37777;53.066;21.638;2024-02-04T07:55:25;99643.38;;;5.02
51693;BMP280;37777;53.066;21.638;2024-02-04T08:02:27;99642.28;;;5.03
51693;BMP280;37777;53.066;21.638;2024-02-04T08:26:18;99633.75;;;5.09
51693;BMP280;37777;53.066;21.638;2024-02-04T08:33:19;99637.03;;;5.15
51693;BMP280;37777;53.066;21.638;2024-02-04T08:40:21;99644.91;;;5.20
51693;BMP280;37777;53.066;21.638;2024-02-04T08:47:22;99639.84;;;5.27
51693;BMP280;37777;53.066;21.638;2024-02-04T09:19:30;99626.81;;;5.47
51693;BMP280;37777;53.066;21.638;2024-02-04T09:51:59;99617.91;;;5.55
51693;BMP280;37777;53.066;21.638;2024-02-04T09:59:05;99600.53;;;5.61
51693;BMP280;37777;53.066;21.638;2024-02-04T10:06:07;99582.31;;;5.67
51693;BMP280;37777;53.066;21.638;2024-02-04T10:13:09;99571.72;;;5.71
51693;BMP280;37777;53.066;21.638;2024-02-04T10:28:53;99544.88;;;5.71
51693;BMP280;37777;53.066;21.638;2024-02-04T10:35:55;99539.97;;;5.73
51693;BMP280;37777;53.066;21.638;2024-02-04T10:43:00;99528.34;;;5.69
51693;BMP280;37777;53.066;21.638;2024-02-04T10:50:06;99501.38;;;5.65
51693;BMP280;37777;53.066;21.638;2024-02-04T11:05:30;99479.34;;;5.72
51693;BMP280;37777;53.066;21.638;2024-02-04T11:38:05;99463.06;;;5.77
51693;BMP280;37777;53.066;21.638;2024-02-04T11:45:08;99438.25;;;5.80
51693;BMP280;37777;53.066;21.638;2024-02-04T11:52:18;99437.53;;;5.83
51693;BMP280;37777;53.066;21.638;2024-02-04T11:59:20;99433.69;;;5.93
51693;BMP280;37777;53.066;21.638;2024-02-04T12:06:24;99416.91;;;5.96
51693;BMP280;37777;53.066;21.638;2024-02-04T12:21:48;99390.88;;;6.09
51693;BMP280;37777;53.066;21.638;2024-02-04T12:28:50;99385.38;;;6.05
51693;BMP280;37777;53.066;21.638;2024-02-04T12:35:52;99385.72;;;6.04
51693;BMP280;37777;53.066;21.638;2024-02-04T12:50:06;99348.25;;;6.07
51693;BMP280;37777;53.066;21.638;2024-02-04T12:57:09;99350.34;;;6.02
51693;BMP280;37777;53.066;21.638;2024-02-04T13:04:15;99359.97;;;6.03
51693;BMP280;37777;53.066;21.638;2024-02-04T13:11:20;99364.66;;;6.06
51693;BMP280;37777;53.066;21.638;2024-02-04T13:18:21;99348.13;;;6.04
51693;BMP280;37777;53.066;21.638;2024-02-04T13:25:23;99334.03;;;5.94
51693;BMP280;37777;53.066;21.638;2024-02-04T13:32:25;99338.50;;;5.90
51693;BMP280;37777;53.066;21.638;2024-02-04T13:39:27;99342.81;;;5.82
51693;BMP280;37777;53.066;21.638;2024-02-04T13:46:30;99329.06;;;5.72
51693;BMP280;37777;53.066;21.638;2024-02-04T13:53:32;99319.78;;;5.69
51693;BMP280;37777;53.066;21.638;2024-02-04T14:00:35;99316.31;;;5.69
51693;BMP280;37777;53.066;21.638;2024-02-04T14:07:37;99320.66;;;5.61
51693;BMP280;37777;53.066;21.638;2024-02-04T14:14:38;99302.41;;;5.54
51693;BMP280;37777;53.066;21.638;2024-02-04T14:21:41;99297.28;;;5.49
51693;BMP280;37777;53.066;21.638;2024-02-04T14:28:42;99282.97;;;5.45
51693;BMP280;37777;53.066;21.638;2024-02-04T14:35:44;99282.81;;;5.41
51693;BMP280;37777;53.066;21.638;2024-02-04T14:42:45;99265.72;;;5.34
51693;BMP280;37777;53.066;21.638;2024-02-04T14:49:47;99250.63;;;5.29
51693;BMP280;37777;53.066;21.638;2024-02-04T14:56:50;99251.25;;;5.26
51693;BMP280;37777;53.066;21.638;2024-02-04T15:03:52;99238.19;;;5.24
51693;BMP280;37777;53.066;21.638;2024-02-04T15:10:54;99230.28;;;5.28
51693;BMP280;37777;53.066;21.638;2024-02-04T15:17:56;99217.53;;;5.37
51693;BMP280;37777;53.066;21.638;2024-02-04T15:24:58;99200.91;;;5.32
51693;BMP280;37777;53.066;21.638;2024-02-04T15:31:59;99196.97;;;5.29
51693;BMP280;37777;53.066;21.638;2024-02-04T15:39:01;99188.94;;;5.29
51693;BMP280;37777;53.066;21.638;2024-02-04T15:46:08;99182.34;;;5.39
51693;BMP280;37777;53.066;21.638;2024-02-04T15:53:11;99169.28;;;5.50
51693;BMP280;37777;53.066;21.638;2024-02-04T16:00:14;99162.56;;;5.56
51693;BMP280;37777;53.066;21.638;2024-02-04T16:07:21;99163.00;;;5.70
51693;BMP280;37777;53.066;21.638;2024-02-04T16:14:24;99151.47;;;5.70
51693;BMP280;37777;53.066;21.638;2024-02-04T16:21:25;99140.53;;;5.75
51693;BMP280;37777;53.066;21.638;2024-02-04T16:28:27;99137.16;;;5.78
51693;BMP280;37777;53.066;21.638;2024-02-04T16:35:29;99108.63;;;5.86
51693;BMP280;37777;53.066;21.638;2024-02-04T16:42:30;99107.38;;;5.83
51693;BMP280;37777;53.066;21.638;2024-02-04T16:49:37;99088.19;;;5.81
51693;BMP280;37777;53.066;21.638;2024-02-04T16:56:38;99087.31;;;5.77
51693;BMP280;37777;53.066;21.638;2024-02-04T17:03:40;99087.72;;;5.79
51693;BMP280;37777;53.066;21.638;2024-02-04T17:10:42;99099.03;;;5.85
51693;BMP280;37777;53.066;21.638;2024-02-04T17:17:47;99080.16;;;5.81
51693;BMP280;37777;53.066;21.638;2024-02-04T17:24:53;99078.03;;;5.74
51693;BMP280;37777;53.066;21.638;2024-02-04T17:31:58;99054.44;;;5.68
51693;BMP280;37777;53.066;21.638;2024-02-04T17:39:00;99049.16;;;5.71
51693;BMP280;37777;53.066;21.638;2024-02-04T17:55:10;99052.69;;;5.59
51693;BMP280;37777;53.066;21.638;2024-02-04T18:02:11;99036.91;;;5.58
51693;BMP280;37777;53.066;21.638;2024-02-04T18:09:14;99051.75;;;5.68
51693;BMP280;37777;53.066;21.638;2024-02-04T18:24:38;99046.59;;;5.75
51693;BMP280;37777;53.066;21.638;2024-02-04T18:31:40;99024.91;;;5.80
51693;BMP280;37777;53.066;21.638;2024-02-04T18:38:47;99019.88;;;5.78
51693;BMP280;37777;53.066;21.638;2024-02-04T19:02:33;99035.09;;;5.62
51693;BMP280;37777;53.066;21.638;2024-02-04T19:09:34;99022.16;;;5.64
51693;BMP280;37777;53.066;21.638;2024-02-04T19:33:33;99012.72;;;5.70
51693;BMP280;37777;53.066;21.638;2024-02-04T19:40:35;99025.81;;;5.72
51693;BMP280;37777;53.066;21.638;2024-02-04T19:47:37;99007.44;;;5.74
51693;BMP280;37777;53.066;21.638;2024-02-04T19:54:42;99004.44;;;5.75
51693;BMP280;37777;53.066;21.638;2024-02-04T20:01:44;99000.84;;;5.71
51693;BMP280;37777;53.066;21.638;2024-02-04T20:08:46;98990.91;;;5.72
51693;BMP280;37777;53.066;21.638;2024-02-04T20:16:06;99012.16;;;5.77
51693;BMP280;37777;53.066;21.638;2024-02-04T20:23:08;99009.00;;;5.75
51693;BMP280;37777;53.066;21.638;2024-02-04T20:30:10;98984.94;;;5.62
51693;BMP280;37777;53.066;21.638;2024-02-04T20:37:14;98997.22;;;5.63
51693;BMP280;37777;53.066;21.638;2024-02-04T20:44:16;99008.53;;;5.57
51693;BMP280;37777;53.066;21.638;2024-02-04T21:08:06;98983.47;;;5.53
51693;BMP280;37777;53.066;21.638;2024-02-04T21:15:08;98989.44;;;5.46
51693;BMP280;37777;53.066;21.638;2024-02-04T21:22:09;99001.63;;;5.43
51693;BMP280;37777;53.066;21.638;2024-02-04T21:29:11;98993.59;;;5.31
51693;BMP280;37777;53.066;21.638;2024-02-04T21:36:12;98975.38;;;5.24
51693;BMP280;37777;53.066;21.638;2024-02-04T21:43:14;98979.19;;;5.23
51693;BMP280;37777;53.066;21.638;2024-02-04T21:50:16;98969.59;;;5.22
51693;BMP280;37777;53.066;21.638;2024-02-04T21:57:17;98961.44;;;5.19
51693;BMP280;37777;53.066;21.638;2024-02-04T22:04:22;98961.44;;;5.19
51693;BMP280;37777;53.066;21.638;2024-02-04T22:11:24;98944.22;;;5.20
51693;BMP280;37777;53.066;21.638;2024-02-04T22:18:27;98955.09;;;5.11
51693;BMP280;37777;53.066;21.638;2024-02-04T22:25:29;98939.69;;;5.08
51693;BMP280;37777;53.066;21.638;2024-02-04T22:32:31;98949.59;;;5.07
51693;BMP280;37777;53.066;21.638;2024-02-04T22:39:32;98958.88;;;5.10
51693;BMP280;37777;53.066;21.638;2024-02-04T22:46:37;98971.53;;;4.97
51693;BMP280;37777;53.066;21.638;2024-02-04T22:53:38;98979.31;;;4.53
51693;BMP280;37777;53.066;21.638;2024-02-04T23:00:40;98950.38;;;4.34
51693;BMP280;37777;53.066;21.638;2024-02-04T23:07:42;98931.66;;;4.34
51693;BMP280;37777;53.066;21.638;2024-02-04T23:14:52;98931.31;;;4.48
51693;BMP280;37777;53.066;21.638;2024-02-04T23:21:54;98916.72;;;4.57
51693;BMP280;37777;53.066;21.638;2024-02-04T23:28:55;98908.00;;;4.73
51693;BMP280;37777;53.066;21.638;2024-02-04T23:35:57;98901.06;;;4.84
51693;BMP280;37777;53.066;21.638;2024-02-04T23:42:58;98877.72;;;4.85
51693;BMP280;37777;53.066;21.638;2024-02-04T23:50:00;98857.63;;;4.91
51693;BMP280;37777;53.066;21.638;2024-02-04T23:57:03;98850.81;;;4.93
